Forksville, Virginia
Current Conditions -  °F | °C
As of 1:16 AM on Monday 22 Dec 2014 (Local Time) from KAVC Reporting Station
Overcast Overcast  
Wind Chill: 30°   Ceiling: 4400
Heat Index: 35°   Visibility: 10mi
Dew Point: 30°   Wind: 6mph
Humidity: 83%   Direction: 20°NNE
Pressure: 30.3"   Gusts: NA
Location:  36.6609°N, 78.0932°W
Report Text: KAVC 220616Z AUTO 02005KT 10SM OVC044 02/M01 A3030 RMK AO2 T00151011
Loading
Personal Weather Stations






























Interactive Weather Map New forecast layout! Learn more

10-Day Weather Forecast

Advertisements
Track Severe Weather on mobile